Savana De La Mar, Dominican Republic
Current Conditions -  °F | °C
As of 6:00 PM on Tuesday 21 Oct 2014 (Local Time) from MDCY Reporting Station
Few Clouds Few Clouds  
Wind Chill: 84°   Ceiling: Unl
Heat Index: 94°   Visibility: 6mi
Dew Point: 77°   Wind: 14mph
Humidity: 79%   Direction: 70°ENE
Pressure: 29.85"   Gusts: NA
Location:  19.05°N, 69.38°W
Report Text: MDCY 212200Z 07012KT 9999 FEW020 29/25 Q1011 NOSIG
Loading
Personal Weather Stations






























Interactive Weather Map
Tropical Storm Tracking
New forecast layout! Learn more

10-Day Weather Forecast

Advertisements
Track Severe Weather on mobile